Relevés horaires Beauvechain (Belgique)


Relevés horaires à Beauvechain - Mardi 04 Juill. 2017
Heure UTC1 Température [°C] Vent [km/h] Hum. [%] Pres.4 [hPa] Visi. [Km] Nébu. [octa] Préc.5 [mm] Cond.
2m. Res. Ros. Dir.2 Vit. Moy. Raf.3
23:00 18.7 18.7 13.1 NNO 1.9 -- 1.9 70 1018.8(-0.3/3h) 20 -- -- --
22:00 19.5 19.5 12.9 NNO 1.9 -- 1.9 66 1019.2(0.0/3h) 20 -- -- --
21:00 20.2 20.2 12.9 NNO 1.9 -- 3.7 63 1019.1(0.1/3h) 20 -- -- --
20:00 20.8 20.8 14.0 NNO 1.9 -- 3.7 65 1019.2(-0.1/3h) 20 -- -- --
19:00 22.1 22.1 13.9 NNO 1.9 -- 3.7 60 1019.1(-0.6/3h) 20 -- -- --
18:00 22.5 22.5 13.6 NNO 1.9 -- 7.4 57 1019.1(-1.0/3h) 20 -- -- --
17:00 23.7 23.7 12.9 NNO 1.9 -- 5.6 51 1019.2(-1.2/3h) 20 -- -- --
15:00 23.5 23.5 13.3 NNO 1.9 3.7 7.4 53 1020(-1.5/3h) 20 2/8 -- --
14:00 22.2 22.2 14.6 NNO 3.7 -- 7.4 62 1020.5(-1.3/3h) 20 3/8 -- --
13:00 20.7 20.7 14.5 NNO 1.9 -- 5.6 68 1021.2(-0.8/3h) 20 3/8 -- --
12:00 19.0 19.0 14.2 ONO 3.7 -- 9.3 74 1021.7(-0.5/3h) 20 3/8 -- --
11:00 17.5 17.5 14.0 NNO 1.9 -- 9.3 80 1022.1(-0.3/3h) 15 7/8 -- --
10:00 16.2 16.2 13.6 SSO 5.6 -- 9.3 85 1022.2(0.0/3h) 12 8/8 -- --
09:00 15.5 15.5 13.8 SSO 5.6 -- 9.3 90 1022.6(0.5/3h) 7 8/8 -- Etat du ciel inchangé
08:00 14.6 14.6 13.5 SO 3.7 -- 7.4 93 1022.6(0.8/3h) 7 8/8 -- Il y a eu de la bruine ou de la neige en grains à la station au cours de l'heure précédente, mais il n'y en a pas au moment de l'observation
07:00 14.5 14.5 13.5 OSO 5.6 -- 7.4 94 1022.2(0.9/3h) 4 8/8 -- Il y a une bruine faible et intermittente à la station au moment de l'observation
06:00 14.3 14.3 13.3 SO 5.6 -- 7.4 94 1022.1(0.6/3h) 10 7/8 -- --
05:00 13.6 13.6 12.7 SO 3.7 -- 5.6 94 1021.7(0.4/3h) 12 7/8 -- --
04:00 12.5 12.5 11.9 SSO 3.7 -- 5.6 96 1021.3(0.1/3h) 12 6/8 -- --
03:00 12.6 12.6 11.6 SSO 3.7 -- 7.4 94 1021.5(-0.2/3h) 20 -- -- --
02:00 13.0 13.0 11.9 SO 3.7 -- 5.6 93 1021.3(-0.4/3h) 20 -- -- --
01:00 13.6 13.6 11.9 OSO 3.7 -- 7.4 89 1021.5(-0.3/3h) 20 -- -- --
00:00 14.0 14.0 11.7 SO 5.6 -- 13.0 86 1021.7(0.0/3h) 20 -- -- --

1 Coordinated Universal Time. Actuellement il est 20:00 locale et 18:00 UTC.

2 Le vent souffle depuis la direction indiquée vers la direction oposée.

3 Les rafales max. sont disponible 40 min après l'heure du relevé.

4 Pour les stations d'altitude (plus de 600m) le géopotentiel du niveau le plus proche de la pression obligatoire est indiqué.

5 Les stations disposant d'un diffuseur peuvent indiquer "trace". Cela signifie que des précipitations ont touchés le sol mais que la quantité est inférieure à 0.1 mm.

Récapitulatif de la journée
Température [°C] Vent [km/h] Ensoleillement4 [h] Precipitations totale5 [mm] Pression [Hpa]
Min1 Max.2 Moy.3 Max. Min Max.
12.2 24.5 3.7 13.0 0 h 0 min 0 1018.8 1022.6

1 Température minimale relevée entre 18:00 UTC la veille et 18:00 UTC le jour donné.

2 Température maximale relevée entre 06:00 UTC le jour donné et 06:00 UTC le lendemain.

3 Vent moyen de la journée basé sur les relevés horaires.

4 Ensoleillement en heures relevé entre 06:00 UTC la veille et 06:00 UTC le jour donné.

5 Précipitations totales tombées entre 06:00 UTC la jour donné et 06:00 UTC le lendemain.

Graphiques horaires